Aeroporto :
LOGIN :

Iscrizione | Disclaimer

   EN    FR    IT 

 










Sommario :    VFR   VFR Marginale   IFR   IFR Intensivo   IFR Molto Intensivo
Visibilità : 
Base nubi : 
>= 8 km
>= 3000ft
5 / 8 km
1000 / 3000 ft
1500m / 5 km
500 / 1000 ft
800 / 1500m
200 / 500 ft
< 800m
< 200 ft
Simboli :   Temporali  Nebbia  Neve Forte  Precipitazioni Forti  Vento > 20 kt
SIGMETs :   Varie  Temporali  Ghiacco  Turbolenza  Onda orograficha  Ceneri Vulcaniche






- Altitudine del aeroporto : 29 ft
- Codice IATA : SVG


ENZV - Sola

ULTIMO METAR :
  • 280020Z 15010KT 9999 FEW025 BKN040 01/M01 Q0997

METARs OBSOLETI :
  • 272350Z 14011KT 9999 FEW037 BKN049 01/M02 Q0997
  • 272320Z 15009KT 9999 FEW037 BKN049 01/M01 Q0997
  • 272250Z 14009KT 9999 -RASN FEW037 BKN049 01/M02 Q0996
  • 272220Z 14012KT 9999 SHSN FEW008 SCT020 BKN050 01/M01 Q0996
  • 272150Z 14012KT 9999 FEW049 BKN059 01/M03 Q0996

TAF TAF ENZV
Valido dal 28 a 00 ore il 29 a 00 ore UTC


2800/2824 15008KT 9999 -SHRASN FEW015CB BKN020
TEMPO 2800/2806 1200 SHSN VV008
BECMG 2805/2808 26010KT BKN030
BECMG 2813/2816 15008KT
PROB30
TEMPO 2817/2820 3000 SHRASN VV012



MetMap, La meteo Aeronautica in un colpo d'occhio ! - Copyright ORBIFLY Dicembre 2007 - Disclaimer

ORBIFLY MET'MAP TEAM :

Programmazione e sviluppo : Alexandra Zaïnal
Concezione : Baudouin d'Aumeries
Aiuto per la programmazione : Marc-Olivier Méhu
Supporto tecnico e logistico : Manuel Goepfert
Aiuto per la traduzione : Arnaldo La Scala

Contatto : metmap@orbifly.com




FONTI E CREDITI :

   NOAA